Time;durP1;ratioP1;P1;durP2;ratioP2;P2;SDS_P1;SDS_P2;PMS_P1;PMS_P2;Temp;Humidity;BMP_temperature;BMP_pressure;BME280_temperature;BME280_humidity;BME280_pressure;Samples;Min_cycle;Max_cycle;Signal;HPM_P1;HPM_P2
2021/10/07 00:02:00;;;;;;;2.27;1.80;;;;;;;11.42;80.34;99954.13;5086749;23;20217;-79
2021/10/07 00:04:36;;;;;;;2.70;1.90;;;;;;;11.35;80.57;99947.97;5046272;23;20234;-79
2021/10/07 00:07:04;;;;;;;2.77;1.70;;;;;;;11.32;80.50;99951.09;5056636;22;20260;-79
2021/10/07 00:09:39;;;;;;;2.73;1.90;;;;;;;11.34;80.10;99951.69;5084930;23;20233;-79
2021/10/07 00:12:10;;;;;;;2.13;1.80;;;;;;;11.25;80.42;99939.56;5042663;23;20222;-79
2021/10/07 00:14:51;;;;;;;1.73;1.63;;;;;;;11.29;80.18;99946.16;5069548;23;20239;-79
2021/10/07 00:17:21;;;;;;;1.67;1.57;;;;;;;11.21;79.95;99948.28;5040933;23;20253;-79
2021/10/07 00:19:59;;;;;;;2.37;1.80;;;;;;;11.34;80.37;99950.88;5047001;23;20225;-79
2021/10/07 00:22:39;;;;;;;2.30;1.57;;;;;;;11.38;79.78;99950.22;5058322;23;20265;-79
2021/10/07 00:25:13;;;;;;;3.83;1.73;;;;;;;11.41;79.81;99940.94;5051909;28;20210;-79
2021/10/07 00:27:40;;;;;;;2.20;1.60;;;;;;;11.37;79.45;99942.41;5059763;23;20237;-79
2021/10/07 00:30:21;;;;;;;4.03;1.80;;;;;;;11.30;80.41;99946.97;5050359;28;20202;-79
2021/10/07 00:33:11;;;;;;;1.93;1.53;;;;;;;11.27;80.00;99939.38;5060802;23;20633;-79
2021/10/07 00:36:00;;;;;;;2.33;1.70;;;;;;;11.32;79.72;99944.91;5041935;23;20299;-79
2021/10/07 00:41:22;;;;;;;4.20;1.73;;;;;;;11.28;80.15;99938.34;5051514;23;20229;-79
2021/10/07 00:43:52;;;;;;;3.47;1.73;;;;;;;11.31;80.77;99943.25;5073924;28;20196;-79
2021/10/07 00:46:19;;;;;;;2.20;1.70;;;;;;;11.07;80.88;99915.34;5055784;28;20209;-79
2021/10/07 00:49:02;;;;;;;2.33;1.90;;;;;;;11.21;80.95;99937.53;5078493;23;20216;-80
2021/10/07 00:51:32;;;;;;;3.03;1.90;;;;;;;11.32;79.45;99932.31;5070727;23;20658;31
2021/10/07 00:54:02;;;;;;;2.60;2.00;;;;;;;11.29;80.07;99931.94;5041943;23;20252;-79
2021/10/07 00:56:36;;;;;;;2.90;1.70;;;;;;;11.21;80.40;99933.00;5075223;23;20281;-79
2021/10/07 00:59:10;;;;;;;2.40;1.70;;;;;;;11.29;80.03;99927.38;5029304;28;20233;-79
2021/10/07 01:01:38;;;;;;;4.20;1.90;;;;;;;11.39;79.99;99930.41;5015918;28;20572;-79
2021/10/07 01:04:27;;;;;;;2.43;1.70;;;;;;;11.32;80.22;99926.97;5034333;28;20193;-79
2021/10/07 01:06:53;;;;;;;4.40;2.10;;;;;;;11.27;80.42;99932.16;5032470;28;20257;-79
2021/10/07 01:09:49;;;;;;;2.23;1.50;;;;;;;11.24;80.47;99932.59;5031943;28;20230;-79
2021/10/07 01:12:21;;;;;;;3.23;1.60;;;;;;;11.29;80.03;99934.63;5069284;23;20229;-79
2021/10/07 01:14:53;;;;;;;1.67;1.33;;;;;;;11.26;80.81;99935.88;5036585;28;20229;-79
2021/10/07 01:17:45;;;;;;;1.83;1.50;;;;;;;11.23;80.87;99933.63;5071616;28;20208;-79
2021/10/07 01:20:26;;;;;;;2.20;1.57;;;;;;;11.27;81.07;99931.31;5047762;23;20231;-79
2021/10/07 01:23:21;;;;;;;2.87;1.80;;;;;;;11.11;80.80;99916.56;5012517;28;20231;-79
2021/10/07 01:25:48;;;;;;;1.80;1.67;;;;;;;11.26;81.29;99940.41;5072658;23;20233;-79
2021/10/07 01:28:33;;;;;;;1.50;1.40;;;;;;;11.24;81.62;99937.13;5057400;28;20235;-79
2021/10/07 01:31:00;;;;;;;2.37;1.67;;;;;;;11.25;81.75;99949.47;5046455;28;20218;-79
2021/10/07 01:33:52;;;;;;;4.00;1.80;;;;;;;11.18;81.76;99946.84;5066245;23;20293;-79
2021/10/07 01:36:23;;;;;;;1.80;1.50;;;;;;;11.13;82.12;99938.63;5053942;28;20337;-79
2021/10/07 01:39:08;;;;;;;2.03;1.80;;;;;;;11.26;82.04;99951.97;5164484;23;20293;-79
2021/10/07 01:42:05;;;;;;;2.60;1.70;;;;;;;11.14;82.41;99951.00;5083153;23;20284;-79
2021/10/07 01:44:37;;;;;;;2.07;1.73;;;;;;;10.99;82.61;99939.75;5082610;22;20205;-79
2021/10/07 01:47:21;;;;;;;3.70;2.10;;;;;;;11.12;82.94;99954.94;5018563;28;20230;-79
2021/10/07 01:49:48;;;;;;;2.87;1.93;;;;;;;11.09;82.88;99945.47;5036079;28;20211;-79
2021/10/07 01:52:16;;;;;;;2.77;1.97;;;;;;;11.11;83.17;99951.41;5017986;28;20231;-79
2021/10/07 01:54:48;;;;;;;3.63;2.23;;;;;;;11.03;83.30;99949.00;5036413;28;20226;-79
2021/10/07 01:57:16;;;;;;;2.83;2.13;;;;;;;11.12;82.81;99946.88;5055401;22;20228;-79
2021/10/07 01:59:52;;;;;;;3.23;2.20;;;;;;;11.15;82.96;99957.19;5065891;23;20221;-79
2021/10/07 02:02:20;;;;;;;1.67;1.57;;;;;;;11.09;82.70;99942.78;5081919;23;20300;-80
2021/10/07 02:04:48;;;;;;;2.23;1.80;;;;;;;11.15;83.21;99949.16;5045705;23;20260;-79
2021/10/07 02:07:26;;;;;;;2.77;1.77;;;;;;;11.15;82.27;99958.00;5040396;28;20186;-79
2021/10/07 02:09:54;;;;;;;1.63;1.50;;;;;;;11.04;82.67;99959.53;5055718;28;20222;-79
2021/10/07 02:12:26;;;;;;;1.97;1.60;;;;;;;10.88;83.33;99946.59;5078888;23;20229;-79
2021/10/07 02:14:53;;;;;;;2.67;1.90;;;;;;;11.03;83.57;99959.72;5065152;23;21336;-79
2021/10/07 02:17:21;;;;;;;2.33;1.87;;;;;;;10.94;83.41;99951.13;5137353;23;20222;-79
2021/10/07 02:19:51;;;;;;;2.43;1.70;;;;;;;10.93;83.19;99936.06;5055263;28;20629;-80
2021/10/07 02:22:33;;;;;;;2.13;1.80;;;;;;;10.99;82.83;99959.34;5055925;28;20209;-79
2021/10/07 02:25:00;;;;;;;3.20;2.00;;;;;;;10.98;83.06;99972.94;5056495;28;20221;-79
2021/10/07 02:27:44;;;;;;;2.03;1.83;;;;;;;10.80;83.24;99954.88;5059134;23;20234;-79
2021/10/07 02:30:35;;;;;;;2.53;1.70;;;;;;;10.92;83.42;99968.44;5082929;23;20241;-79
2021/10/07 02:33:08;;;;;;;2.13;2.00;;;;;;;10.94;83.46;99959.16;5063920;23;20229;-80
2021/10/07 02:36:01;;;;;;;4.13;2.00;;;;;;;10.93;83.49;99978.13;5054134;28;20254;-80
2021/10/07 02:38:33;;;;;;;1.80;1.70;;;;;;;10.89;83.72;99960.81;5081059;23;20221;31
2021/10/07 02:41:05;;;;;;;3.90;2.17;;;;;;;11.07;83.49;99978.88;5011409;28;20254;-79
2021/10/07 02:44:21;;;;;;;2.87;1.90;;;;;;;10.98;83.79;99975.63;5000763;28;20248;-79
2021/10/07 02:47:00;;;;;;;2.43;2.20;;;;;;;10.91;84.17;99980.22;5014945;28;20191;-79
2021/10/07 02:49:28;;;;;;;3.73;2.70;;;;;;;10.95;83.93;99984.94;5012503;28;20203;-79
2021/10/07 02:51:59;;;;;;;4.27;2.47;;;;;;;10.98;83.58;99997.06;5033673;23;20643;-79
2021/10/07 02:54:30;;;;;;;3.67;2.40;;;;;;;10.92;84.46;99979.97;5056337;28;20224;-80
2021/10/07 02:56:58;;;;;;;4.30;3.00;;;;;;;10.92;84.51;99992.56;5055184;28;20244;-79
2021/10/07 02:59:27;;;;;;;3.23;2.67;;;;;;;10.99;84.25;99988.00;5074426;28;20232;-80
2021/10/07 03:02:00;;;;;;;3.33;2.90;;;;;;;10.92;84.37;99979.97;5073543;28;20204;-80
2021/10/07 03:04:52;;;;;;;4.73;3.00;;;;;;;10.93;84.57;99980.81;5072675;28;20220;-80
2021/10/07 03:07:26;;;;;;;3.70;3.30;;;;;;;10.85;84.55;99968.47;5073650;28;20256;-80
2021/10/07 03:10:13;;;;;;;4.17;3.57;;;;;;;10.89;84.61;99974.22;5075068;28;20169;-80
2021/10/07 03:12:46;;;;;;;3.73;3.30;;;;;;;10.93;84.91;99983.47;5080097;23;20244;-80
2021/10/07 03:15:35;;;;;;;3.90;3.60;;;;;;;10.94;84.87;99988.66;5082468;23;20205;-79
2021/10/07 03:18:08;;;;;;;5.17;3.73;;;;;;;10.97;84.88;99996.25;5056050;28;20716;-80
2021/10/07 03:20:46;;;;;;;4.63;3.67;;;;;;;10.83;85.27;99983.94;5088571;23;20229;-79
2021/10/07 03:23:15;;;;;;;5.47;3.90;;;;;;;10.80;85.37;99981.69;5072772;28;20232;-80
2021/10/07 03:26:02;;;;;;;5.43;4.00;;;;;;;10.86;85.90;99996.94;5056363;28;20292;-79
2021/10/07 03:28:35;;;;;;;4.53;3.80;;;;;;;10.89;86.43;99996.50;5080380;22;20225;-79
2021/10/07 03:31:05;;;;;;;5.40;4.13;;;;;;;10.85;86.32;99987.25;5032418;28;20199;-80
2021/10/07 03:33:38;;;;;;;5.03;3.87;;;;;;;10.82;86.71;99993.03;5059888;23;20210;-79
2021/10/07 03:36:21;;;;;;;4.40;4.00;;;;;;;10.91;86.16;99997.13;5081794;22;20229;-80
2021/10/07 03:38:51;;;;;;;5.13;4.00;;;;;;;10.94;85.97;99993.19;5068825;23;20237;-79
2021/10/07 03:41:22;;;;;;;4.47;3.87;;;;;;;10.86;85.97;99986.22;5035865;28;20266;-79
2021/10/07 03:43:50;;;;;;;5.60;4.37;;;;;;;10.80;86.17;99984.38;5052272;28;20210;-79
2021/10/07 03:46:44;;;;;;;4.77;3.97;;;;;;;10.94;87.12;99995.84;5034804;28;20221;-79
2021/10/07 03:49:15;;;;;;;4.80;4.30;;;;;;;10.93;86.93;99999.56;5063114;23;20225;-79
2021/10/07 03:51:58;;;;;;;5.30;4.33;;;;;;;11.02;86.87;99990.25;5077350;23;20228;-79
2021/10/07 03:54:31;;;;;;;6.50;4.80;;;;;;;10.89;86.28;99995.66;5054637;28;20209;-80
2021/10/07 03:56:58;;;;;;;5.60;5.00;;;;;;;10.86;87.27;99990.75;5055867;28;20251;-79
2021/10/07 03:59:26;;;;;;;5.40;4.90;;;;;;;10.87;87.23;100001.25;5086047;22;20241;-80
2021/10/07 04:01:54;;;;;;;5.83;5.20;;;;;;;10.89;87.48;99988.47;5061879;23;20217;-79
2021/10/07 04:04:26;;;;;;;5.17;4.67;;;;;;;10.98;87.66;99999.75;5056309;28;20280;-80
2021/10/07 04:07:00;;;;;;;4.90;4.37;;;;;;;10.97;87.35;99995.41;5072265;28;20508;-80
2021/10/07 04:09:30;;;;;;;5.83;4.07;;;;;;;10.99;86.74;99988.00;5072759;28;20256;-79
2021/10/07 04:12:16;;;;;;;5.60;4.17;;;;;;;11.03;86.81;99998.09;5056875;28;20237;-79
2021/10/07 04:14:44;;;;;;;5.07;4.57;;;;;;;10.99;87.53;99996.88;5054219;28;20221;-79
2021/10/07 04:17:25;;;;;;;5.60;5.10;;;;;;;10.95;87.43;99997.50;5074907;23;20208;-79
2021/10/07 04:19:56;;;;;;;5.07;4.60;;;;;;;10.96;87.72;99991.91;5077982;23;21819;-80
2021/10/07 04:22:26;;;;;;;5.07;4.50;;;;;;;11.04;87.19;99999.75;5073237;28;20240;-79
2021/10/07 04:24:56;;;;;;;4.30;3.90;;;;;;;10.96;87.72;100002.63;5079410;23;20221;-79
2021/10/07 04:27:27;;;;;;;5.77;4.43;;;;;;;10.97;87.52;100001.63;5071914;22;20328;-79
2021/10/07 04:30:18;;;;;;;5.03;4.53;;;;;;;11.01;87.52;100002.81;5052532;28;20205;-80
2021/10/07 04:32:59;;;;;;;6.17;4.53;;;;;;;11.00;87.84;100000.38;5044943;23;20219;-79
2021/10/07 04:35:51;;;;;;;6.40;4.17;;;;;;;11.07;87.65;100008.38;5012472;23;20627;-80
2021/10/07 04:38:34;;;;;;;4.33;3.40;;;;;;;10.96;87.67;99999.16;5004820;23;20267;-79
2021/10/07 04:41:20;;;;;;;4.07;3.67;;;;;;;11.00;87.70;100011.94;5053365;23;20638;-79
2021/10/07 04:43:55;;;;;;;3.77;3.23;;;;;;;11.00;87.56;100019.16;5032561;28;20228;-80
2021/10/07 04:46:35;;;;;;;3.83;3.47;;;;;;;11.07;87.37;100019.94;5087956;23;20240;-79
2021/10/07 04:49:49;;;;;;;4.90;3.40;;;;;;;11.04;87.30;100012.31;5061771;23;20244;-79
2021/10/07 04:52:29;;;;;;;4.83;3.60;;;;;;;11.14;87.07;100012.69;5052610;28;20240;-79
2021/10/07 04:55:01;;;;;;;3.60;3.30;;;;;;;11.10;87.36;100016.00;5071371;28;20640;-79
2021/10/07 04:57:32;;;;;;;4.20;3.20;;;;;;;11.14;87.29;100012.69;5052700;28;20273;-79
2021/10/07 05:00:00;;;;;;;3.20;2.90;;;;;;;11.14;87.37;100014.53;5069007;28;20213;-79
2021/10/07 05:02:44;;;;;;;3.63;3.23;;;;;;;11.09;87.28;100015.19;5067379;28;20221;-79
2021/10/07 05:05:40;;;;;;;3.93;3.10;;;;;;;11.16;87.11;100018.66;5062337;28;20218;-80
2021/10/07 05:08:20;;;;;;;3.77;2.90;;;;;;;11.11;87.05;100009.59;5042869;23;20239;-80
2021/10/07 05:10:54;;;;;;;3.33;3.13;;;;;;;11.02;87.42;100014.38;5037810;23;20226;-79
2021/10/07 05:13:32;;;;;;;3.10;2.90;;;;;;;11.14;87.43;100028.78;5083819;23;20256;-80
2021/10/07 05:16:16;;;;;;;3.00;2.80;;;;;;;11.04;87.95;100020.38;5041879;23;20253;-80
2021/10/07 05:18:57;;;;;;;3.50;3.10;;;;;;;11.10;87.44;100010.66;5063749;23;20220;-80
2021/10/07 05:21:28;;;;;;;3.80;3.27;;;;;;;11.16;87.47;100026.69;5036952;28;20217;-79
2021/10/07 05:23:59;;;;;;;3.37;3.00;;;;;;;11.11;87.69;100036.41;5043160;28;20303;-80
2021/10/07 05:26:28;;;;;;;3.50;2.70;;;;;;;11.13;88.04;100023.63;5040119;28;20240;-79
2021/10/07 05:29:35;;;;;;;3.30;3.00;;;;;;;11.17;87.93;100038.25;5056614;28;20201;-79
2021/10/07 05:32:08;;;;;;;3.17;2.57;;;;;;;11.22;87.60;100038.44;5063770;23;20226;-79
2021/10/07 05:34:42;;;;;;;3.10;2.80;;;;;;;11.21;87.58;100040.28;5055546;28;20221;-79
2021/10/07 05:37:26;;;;;;;3.50;3.20;;;;;;;11.25;87.43;100044.19;5055214;28;20226;-79
2021/10/07 05:40:18;;;;;;;3.97;3.27;;;;;;;11.30;87.60;100046.22;5068608;23;20229;-79
2021/10/07 05:42:55;;;;;;;3.53;2.60;;;;;;;11.23;87.22;100034.72;5065353;23;20244;-79
2021/10/07 05:45:37;;;;;;;2.87;2.67;;;;;;;11.06;87.12;100010.22;5070013;23;20224;-79
2021/10/07 05:48:51;;;;;;;2.50;2.27;;;;;;;11.27;87.52;100057.38;5028269;28;20233;-79
2021/10/07 05:51:24;;;;;;;3.17;2.87;;;;;;;11.27;87.77;100055.53;5057955;28;20218;-79
2021/10/07 05:53:54;;;;;;;3.73;2.60;;;;;;;11.30;87.24;100049.72;5057586;28;20642;-79
2021/10/07 05:57:01;;;;;;;2.37;2.00;;;;;;;11.35;87.32;100055.28;5091254;23;20263;-78
2021/10/07 05:59:48;;;;;;;3.30;2.50;;;;;;;11.36;87.17;100054.25;5050981;23;20229;-79
2021/10/07 06:02:25;;;;;;;2.63;2.43;;;;;;;11.40;87.02;100058.13;5027093;23;20234;-79
2021/10/07 06:05:17;;;;;;;2.33;2.13;;;;;;;11.35;87.18;100051.78;5017438;23;20227;-79
2021/10/07 06:08:00;;;;;;;3.93;2.30;;;;;;;11.38;87.43;100052.16;5044876;23;20217;-79
2021/10/07 06:10:31;;;;;;;2.50;2.17;;;;;;;11.42;87.57;100049.88;5025180;28;20195;-79
2021/10/07 06:13:13;;;;;;;2.00;1.90;;;;;;;11.47;87.33;100061.63;5040595;28;20214;-79
2021/10/07 06:15:40;;;;;;;3.57;2.70;;;;;;;11.46;87.07;100057.28;5055891;28;20237;-79
2021/10/07 06:18:21;;;;;;;2.40;2.20;;;;;;;11.37;87.14;100047.84;5045427;23;20222;-79
2021/10/07 06:21:01;;;;;;;2.70;2.17;;;;;;;11.44;87.01;100061.22;5040855;28;20229;-80
2021/10/07 06:23:36;;;;;;;2.23;2.03;;;;;;;11.51;87.30;100061.19;5067223;28;20221;-80
2021/10/07 06:26:13;;;;;;;2.80;2.30;;;;;;;11.60;86.58;100070.63;5065636;28;20218;-79
2021/10/07 06:28:41;;;;;;;2.30;2.10;;;;;;;11.56;86.58;100053.31;5066216;28;20213;-79
2021/10/07 06:31:09;;;;;;;2.10;1.90;;;;;;;11.59;86.02;100066.28;5049131;28;20299;-79
2021/10/07 06:33:38;;;;;;;1.80;1.70;;;;;;;11.62;86.43;100065.88;5066683;28;20300;-80
2021/10/07 06:36:06;;;;;;;3.30;1.90;;;;;;;11.60;86.35;100070.63;5065766;28;20221;-79
2021/10/07 06:38:33;;;;;;;2.50;1.70;;;;;;;11.52;86.48;100076.25;5066243;28;20213;-80
2021/10/07 06:41:00;;;;;;;3.53;1.90;;;;;;;11.49;86.89;100077.50;5048258;28;20221;-80
2021/10/07 06:43:27;;;;;;;3.10;1.80;;;;;;;11.58;86.42;100084.25;5049853;28;20244;-80
2021/10/07 06:45:55;;;;;;;3.10;1.80;;;;;;;11.73;85.66;100087.50;5049482;28;20260;-79
2021/10/07 06:48:22;;;;;;;2.97;2.00;;;;;;;11.73;85.77;100084.00;5060203;28;20222;-80
2021/10/07 06:50:49;;;;;;;2.07;1.80;;;;;;;11.67;85.91;100082.97;5053851;28;20215;-80
2021/10/07 06:53:18;;;;;;;2.50;2.00;;;;;;;11.75;85.64;100093.50;5030756;28;20206;-79
2021/10/07 06:55:45;;;;;;;2.03;1.83;;;;;;;11.74;86.22;100099.06;5030731;28;20223;-79
2021/10/07 06:58:30;;;;;;;2.20;1.80;;;;;;;11.67;86.48;100099.06;5030114;28;20199;-80
2021/10/07 07:00:59;;;;;;;2.63;1.83;;;;;;;11.69;86.17;100112.28;5030042;28;20247;-79
2021/10/07 07:03:35;;;;;;;2.17;1.97;;;;;;;11.66;86.96;100115.41;5045566;23;20233;-79
2021/10/07 07:06:02;;;;;;;2.20;2.00;;;;;;;11.66;86.27;100104.66;5032098;28;20236;-79
2021/10/07 07:08:43;;;;;;;2.53;2.30;;;;;;;11.73;86.72;100111.66;5042317;23;20210;-79
2021/10/07 07:11:27;;;;;;;2.43;1.93;;;;;;;11.78;86.47;100111.84;5013938;23;20258;-79
2021/10/07 07:14:06;;;;;;;2.93;1.90;;;;;;;11.76;85.85;100118.44;5009544;23;20236;-79
2021/10/07 07:16:40;;;;;;;2.80;2.00;;;;;;;11.86;86.31;100116.13;5040082;23;20232;-79
2021/10/07 07:19:32;;;;;;;2.03;1.83;;;;;;;11.77;86.33;100109.38;5051066;23;20238;-79
2021/10/07 07:22:00;;;;;;;2.83;1.67;;;;;;;11.90;86.27;100117.34;5030297;28;20225;-79
2021/10/07 07:24:37;;;;;;;2.13;1.97;;;;;;;12.04;85.82;100131.53;5047354;28;20229;-80
2021/10/07 07:27:11;;;;;;;2.60;1.97;;;;;;;12.02;86.10;100137.09;5068337;23;20233;-79
2021/10/07 07:30:09;;;;;;;3.00;2.10;;;;;;;12.12;86.35;100137.47;5073253;28;20228;-79
2021/10/07 07:32:40;;;;;;;2.30;2.00;;;;;;;12.06;85.31;100126.75;5087145;28;20211;-79
2021/10/07 07:35:12;;;;;;;2.53;2.00;;;;;;;12.21;84.98;100136.16;5087833;28;20223;-79
2021/10/07 07:37:46;;;;;;;2.23;2.00;;;;;;;12.08;84.45;100133.56;5091842;23;20223;-79
2021/10/07 07:40:20;;;;;;;2.53;1.83;;;;;;;12.08;84.68;100140.78;4991092;28;20269;-79
2021/10/07 07:42:53;;;;;;;1.83;1.73;;;;;;;12.11;84.66;100135.81;5008944;28;20246;-79
2021/10/07 07:45:20;;;;;;;1.77;1.50;;;;;;;12.13;85.12;100131.00;4990653;28;20314;-79
2021/10/07 07:48:10;;;;;;;2.23;1.93;;;;;;;12.32;85.00;100138.13;4990900;28;20227;-79
2021/10/07 07:50:46;;;;;;;2.20;1.73;;;;;;;12.19;84.94;100130.16;4990015;28;20306;-79
2021/10/07 07:53:16;;;;;;;2.17;1.60;;;;;;;12.47;84.20;100132.41;5018109;23;20261;-79
2021/10/07 07:55:50;;;;;;;2.57;1.87;;;;;;;12.61;83.14;100146.56;5024439;28;20273;-79
2021/10/07 07:58:21;;;;;;;2.50;1.80;;;;;;;12.74;82.95;100144.56;5011467;28;20280;-79
2021/10/07 08:00:50;;;;;;;1.83;1.50;;;;;;;12.89;83.38;100159.53;5022592;28;20250;-79
2021/10/07 08:03:19;;;;;;;2.10;1.63;;;;;;;13.01;82.29;100155.09;5042436;28;20214;-81
2021/10/07 08:05:52;;;;;;;2.53;1.40;;;;;;;12.80;82.03;100151.75;5028710;28;20214;-79
2021/10/07 08:08:24;;;;;;;3.33;2.00;;;;;;;13.07;81.47;100162.25;5043835;28;20236;-79
2021/10/07 08:10:53;;;;;;;2.83;1.43;;;;;;;12.80;82.29;100142.88;5043413;28;20288;-79
2021/10/07 08:13:23;;;;;;;3.20;1.50;;;;;;;12.87;82.92;100161.66;5033593;28;20214;-79
2021/10/07 08:16:02;;;;;;;1.53;1.43;;;;;;;12.77;82.84;100154.09;5024598;28;20242;-79
2021/10/07 08:18:29;;;;;;;2.17;1.60;;;;;;;13.00;82.68;100165.03;5027813;28;20226;-79
2021/10/07 08:20:58;;;;;;;2.10;1.60;;;;;;;12.95;83.35;100166.72;5026287;28;20222;-79
2021/10/07 08:23:35;;;;;;;2.10;1.60;;;;;;;13.06;82.53;100158.78;5043198;28;20534;-79
2021/10/07 08:26:04;;;;;;;2.80;1.67;;;;;;;13.08;82.53;100170.09;5011246;28;20218;-79
2021/10/07 08:28:47;;;;;;;1.50;1.40;;;;;;;12.90;81.79;100158.50;5013402;28;20241;-79
2021/10/07 08:31:14;;;;;;;1.73;1.60;;;;;;;12.82;83.28;100166.88;5044555;28;20256;-79
2021/10/07 08:33:48;;;;;;;2.00;1.80;;;;;;;12.93;82.23;100158.88;5027437;28;20226;-79
2021/10/07 08:36:16;;;;;;;2.80;1.57;;;;;;;12.92;82.55;100169.88;5043615;28;20234;-79
2021/10/07 08:38:44;;;;;;;1.60;1.50;;;;;;;12.77;82.89;100167.53;5040270;28;20217;-79
2021/10/07 08:41:17;;;;;;;1.60;1.50;;;;;;;12.71;83.09;100171.09;5053805;28;20221;-79
2021/10/07 08:43:53;;;;;;;2.23;1.50;;;;;;;12.65;83.56;100169.28;5044237;28;20252;-79
2021/10/07 08:46:23;;;;;;;1.73;1.63;;;;;;;12.59;83.84;100171.00;5042398;28;20233;-79
2021/10/07 08:48:53;;;;;;;2.10;1.60;;;;;;;12.55;84.16;100171.66;5025550;28;20519;-79
2021/10/07 08:51:27;;;;;;;1.67;1.57;;;;;;;12.55;83.76;100183.19;5028921;28;20222;-79
2021/10/07 08:53:56;;;;;;;2.47;1.50;;;;;;;12.66;83.82;100173.59;5036318;28;20326;-79
2021/10/07 08:56:25;;;;;;;1.70;1.60;;;;;;;12.67;83.58;100167.19;5042148;28;20234;-80
2021/10/07 08:58:56;;;;;;;1.80;1.70;;;;;;;12.67;83.97;100177.94;5026332;28;20260;-80
2021/10/07 09:01:48;;;;;;;1.70;1.60;;;;;;;12.78;83.46;100182.63;5042537;28;20283;-79
2021/10/07 09:04:31;;;;;;;2.80;1.80;;;;;;;12.80;83.15;100169.75;5025999;28;20230;-80
2021/10/07 09:07:04;;;;;;;2.60;1.70;;;;;;;12.91;82.29;100178.97;5024531;28;20243;-79
2021/10/07 09:10:01;;;;;;;2.17;1.50;;;;;;;12.84;83.30;100184.41;5026950;28;20547;-79
2021/10/07 09:12:30;;;;;;;1.80;1.70;;;;;;;12.85;83.29;100172.63;5043463;28;20229;-79
2021/10/07 09:14:57;;;;;;;1.70;1.60;;;;;;;12.91;81.88;100184.34;5032635;28;20277;-79
2021/10/07 09:17:27;;;;;;;1.67;1.57;;;;;;;12.91;83.14;100181.66;4975758;28;20245;-79
2021/10/07 09:19:58;;;;;;;2.47;1.80;;;;;;;12.82;83.08;100166.88;5006556;28;20296;-79
2021/10/07 09:22:30;;;;;;;1.83;1.70;;;;;;;12.81;82.63;100179.47;5033368;28;20248;-79
2021/10/07 09:25:07;;;;;;;2.00;1.80;;;;;;;12.89;83.49;100179.19;5042693;28;20261;-79
2021/10/07 09:27:39;;;;;;;1.80;1.70;;;;;;;12.77;83.45;100175.59;5040875;28;20230;-80
2021/10/07 09:30:29;;;;;;;2.53;1.90;;;;;;;12.76;83.43;100174.75;5029285;28;20296;-79
2021/10/07 09:33:01;;;;;;;1.70;1.60;;;;;;;12.73;84.01;100177.09;5043766;28;20222;-80
2021/10/07 09:35:45;;;;;;;1.60;1.50;;;;;;;12.82;83.22;100165.00;5016508;28;20246;-79
2021/10/07 09:38:19;;;;;;;1.90;1.80;;;;;;;12.93;83.06;100174.19;5021509;28;20218;-80
2021/10/07 09:41:08;;;;;;;1.97;1.30;;;;;;;12.88;83.08;100176.75;5006945;28;20254;-80
2021/10/07 09:43:47;;;;;;;2.57;1.80;;;;;;;12.95;83.01;100172.94;5023735;28;20575;-80
2021/10/07 09:46:39;;;;;;;1.80;1.70;;;;;;;12.99;83.59;100184.06;5004321;28;20230;-80
2021/10/07 09:49:15;;;;;;;2.37;1.53;;;;;;;12.96;82.94;100179.13;5065453;23;20259;-80
2021/10/07 09:51:48;;;;;;;2.23;1.70;;;;;;;13.04;83.23;100187.75;5048640;28;20247;-80
2021/10/07 09:54:31;;;;;;;2.17;1.83;;;;;;;12.90;83.08;100175.47;5080635;28;20232;-80
2021/10/07 09:57:05;;;;;;;3.93;2.00;;;;;;;12.98;82.92;100188.63;5082625;28;20624;-80
2021/10/07 09:59:55;;;;;;;1.83;1.73;;;;;;;12.99;83.14;100179.50;5085376;28;20208;-80
2021/10/07 10:02:23;;;;;;;2.10;2.00;;;;;;;12.93;82.72;100188.47;5085338;28;20235;-80
2021/10/07 10:04:54;;;;;;;2.00;1.90;;;;;;;12.97;83.61;100184.28;5067473;28;20224;-80
2021/10/07 10:07:28;;;;;;;2.27;2.07;;;;;;;13.10;82.96;100192.25;5085226;28;20624;-80
2021/10/07 10:09:58;;;;;;;2.30;2.10;;;;;;;13.13;82.91;100194.50;5085700;28;20236;-80
2021/10/07 10:12:34;;;;;;;1.90;1.80;;;;;;;13.09;82.62;100181.69;5084925;28;20229;-80
2021/10/07 10:15:05;;;;;;;2.00;1.87;;;;;;;13.16;83.31;100185.97;5052346;28;20258;-80
2021/10/07 10:17:40;;;;;;;2.33;1.50;;;;;;;13.25;82.11;100191.88;5068622;28;20286;-80
2021/10/07 10:20:22;;;;;;;2.37;1.63;;;;;;;13.20;83.25;100183.69;5071864;28;20247;-80
2021/10/07 10:23:10;;;;;;;3.23;1.97;;;;;;;13.33;82.40;100183.53;5070435;28;20628;-80
2021/10/07 10:26:13;;;;;;;2.30;1.97;;;;;;;13.17;83.47;100186.81;5067641;28;20200;-80
2021/10/07 10:28:46;;;;;;;1.90;1.80;;;;;;;13.25;82.67;100183.81;5059812;28;20265;-79
2021/10/07 10:31:35;;;;;;;2.00;1.90;;;;;;;13.28;82.48;100179.88;5055026;28;20251;-80
2021/10/07 10:34:08;;;;;;;2.17;1.97;;;;;;;13.38;82.37;100182.88;5069561;28;20244;-80
2021/10/07 10:37:20;;;;;;;2.83;1.97;;;;;;;13.41;82.34;100183.25;5088475;28;20294;-80
2021/10/07 10:39:57;;;;;;;2.40;2.20;;;;;;;13.31;82.51;100192.88;5058473;28;20225;-80
2021/10/07 10:42:27;;;;;;;2.43;2.23;;;;;;;13.12;82.30;100181.28;5098219;28;20284;-80
2021/10/07 10:45:20;;;;;;;3.07;2.17;;;;;;;13.19;82.74;100193.63;5068940;28;20219;-80
2021/10/07 10:47:47;;;;;;;2.17;2.00;;;;;;;12.93;82.89;100171.50;5038284;23;20265;-80
2021/10/07 10:50:15;;;;;;;2.50;2.30;;;;;;;13.13;82.83;100191.81;4995499;28;20647;-79
2021/10/07 10:53:41;;;;;;;2.53;2.33;;;;;;;13.27;81.86;100197.88;5019403;23;20223;-80
2021/10/07 10:56:15;;;;;;;2.30;2.20;;;;;;;13.13;82.21;100183.75;5030186;28;20194;-79
2021/10/07 10:59:14;;;;;;;2.60;2.40;;;;;;;12.96;83.15;100185.34;5025100;28;20310;-79
2021/10/07 11:02:24;;;;;;;2.80;2.60;;;;;;;13.19;83.15;100188.25;5012750;28;20222;-79
2021/10/07 11:05:10;;;;;;;2.80;2.60;;;;;;;13.07;83.00;100189.16;5025430;28;20236;-79
2021/10/07 11:07:46;;;;;;;2.80;2.60;;;;;;;13.08;83.34;100185.44;5043147;22;20243;-80
2021/10/07 11:10:30;;;;;;;2.70;2.50;;;;;;;13.06;84.63;100190.22;5014397;23;20249;-79
2021/10/07 11:13:23;;;;;;;2.47;2.27;;;;;;;13.06;83.81;100192.91;5047406;28;20233;-80
2021/10/07 11:16:17;;;;;;;3.23;2.70;;;;;;;13.07;84.20;100187.28;5055527;23;20256;-79
2021/10/07 11:18:51;;;;;;;3.20;3.00;;;;;;;12.97;84.13;100186.19;5049701;28;20194;-80
2021/10/07 11:21:22;;;;;;;3.37;2.80;;;;;;;13.06;84.35;100187.53;5024952;28;20217;-80
2021/10/07 11:23:54;;;;;;;5.00;2.93;;;;;;;13.04;84.06;100193.13;5049127;28;20272;-80
2021/10/07 11:26:33;;;;;;;3.03;2.83;;;;;;;13.05;83.93;100202.84;5040252;23;20221;-79
2021/10/07 11:29:14;;;;;;;3.80;2.80;;;;;;;12.90;84.60;100193.47;5033044;28;20281;-80
2021/10/07 11:31:45;;;;;;;3.23;3.03;;;;;;;13.10;84.08;100189.56;5049123;28;20238;-80
2021/10/07 11:34:17;;;;;;;3.60;3.30;;;;;;;13.08;84.66;100185.44;5049861;28;20209;-79
2021/10/07 11:36:55;;;;;;;3.37;3.17;;;;;;;13.12;83.68;100182.09;5048782;28;20401;-80
2021/10/07 11:39:22;;;;;;;3.83;3.53;;;;;;;13.11;83.25;100190.41;5048695;28;20226;-79
2021/10/07 11:41:56;;;;;;;4.57;4.10;;;;;;;13.06;83.67;100192.91;5048511;28;20251;-80
2021/10/07 11:44:45;;;;;;;4.47;3.93;;;;;;;13.07;83.74;100186.47;5034637;28;20259;-79
2021/10/07 11:47:31;;;;;;;4.97;3.93;;;;;;;12.99;83.92;100176.81;5032822;28;20221;-80
2021/10/07 11:50:14;;;;;;;4.90;4.50;;;;;;;13.02;83.66;100180.91;5048749;28;20213;-80
2021/10/07 11:52:42;;;;;;;4.47;4.07;;;;;;;12.98;84.01;100175.19;5047064;28;20256;-80
2021/10/07 11:55:26;;;;;;;5.10;4.70;;;;;;;13.08;84.21;100182.72;5048802;28;20217;-80
2021/10/07 11:58:00;;;;;;;5.13;4.47;;;;;;;13.16;83.85;100183.28;5028076;28;20256;-80
2021/10/07 12:00:57;;;;;;;6.80;5.50;;;;;;;13.15;83.31;100181.66;5027036;28;20230;-79
2021/10/07 12:03:33;;;;;;;5.30;4.80;;;;;;;13.15;83.77;100187.06;5027192;28;20227;-80
2021/10/07 12:06:14;;;;;;;6.13;5.63;;;;;;;13.11;84.15;100183.13;5028471;28;20234;-80
2021/10/07 12:08:45;;;;;;;5.70;5.20;;;;;;;13.08;83.96;100171.97;5027232;28;20226;-80
2021/10/07 12:11:26;;;;;;;5.80;5.30;;;;;;;13.10;83.68;100191.41;5027530;28;20218;-79
2021/10/07 12:14:21;;;;;;;5.10;4.60;;;;;;;13.18;83.88;100177.69;5043878;28;20238;-80
2021/10/07 12:16:51;;;;;;;5.27;4.80;;;;;;;13.32;83.73;100183.75;5029132;28;20269;-80
2021/10/07 12:19:48;;;;;;;5.33;4.83;;;;;;;13.42;83.56;100181.38;5026611;28;20253;-80